Terminal Aerodrome Forecast
Issued by NWS St Louis, MO

Home | Current Version | Previous Version | Text Only | Print | Product List | Glossary On
Versions: 1 2 3 4 5 6 7 8 9 10 11 12 13 14 15
281
FTUS43 KLSX 202322
TAFCOU
TAF
KCOU 202322Z 2100/2124 01010KT P6SM SCT200
     FM210800 05008KT P6SM FEW090
     FM211600 06012G18KT P6SM SCT200=

USA.gov is the U.S. government's official web portal to all federal, state and local government web resources and services.